createdAt,value
2023-11-08T00:00:01.922Z,99189.38
2023-11-08T00:02:28.458Z,99181.47
2023-11-08T00:04:55.031Z,99192.00
2023-11-08T00:07:21.554Z,99191.06
2023-11-08T00:09:48.225Z,99186.66
2023-11-08T00:12:17.953Z,99190.22
2023-11-08T00:14:45.034Z,99191.91
2023-11-08T00:17:11.649Z,99193.69
2023-11-08T00:19:38.183Z,99193.69
2023-11-08T00:22:04.866Z,99192.00
2023-11-08T00:24:31.485Z,99209.50
2023-11-08T00:26:58.024Z,99202.56
2023-11-08T00:29:24.745Z,99204.22
2023-11-08T00:31:54.911Z,99203.38
2023-11-08T00:34:21.620Z,99209.50
2023-11-08T00:36:49.780Z,99211.19
2023-11-08T00:39:19.490Z,99217.31
2023-11-08T00:41:46.839Z,99208.44
2023-11-08T00:44:13.984Z,99201.41
2023-11-08T00:46:40.708Z,99206.66
2023-11-08T00:49:07.688Z,99210.97
2023-11-08T00:51:34.460Z,99221.50
2023-11-08T00:54:01.827Z,99220.66
2023-11-08T00:56:28.616Z,99212.66
2023-11-08T00:58:55.357Z,99202.13
2023-11-08T01:01:23.542Z,99202.13
2023-11-08T01:03:55.914Z,99208.25
2023-11-08T01:06:24.725Z,99208.03
2023-11-08T01:08:51.421Z,99221.09
2023-11-08T01:11:18.300Z,99221.09
2023-11-08T01:13:47.170Z,99214.88
2023-11-08T01:16:15.127Z,99228.88
2023-11-08T01:18:42.416Z,99235.00
2023-11-08T01:21:09.139Z,99240.28
2023-11-08T01:23:37.391Z,99236.69
2023-11-08T01:26:04.550Z,99234.06
2023-11-08T01:28:31.267Z,99241.13
2023-11-08T01:30:58.206Z,99238.59
2023-11-08T01:33:24.799Z,99232.56
2023-11-08T01:35:51.437Z,99230.16
2023-11-08T01:38:17.978Z,99232.16
2023-11-08T01:40:44.640Z,99228.88
2023-11-08T01:43:27.548Z,99220.66
2023-11-08T01:46:05.196Z,99229.50
2023-11-08T01:48:33.301Z,99224.44
2023-11-08T01:51:00.697Z,99225.59
2023-11-08T01:53:29.287Z,99230.22
2023-11-08T01:55:57.406Z,99220.00
2023-11-08T01:58:24.472Z,99227.88
2023-11-08T02:00:52.766Z,99233.34
2023-11-08T02:03:19.462Z,99232.63
2023-11-08T02:05:46.148Z,99224.81
2023-11-08T02:08:12.904Z,99226.50
2023-11-08T02:10:40.558Z,99226.59
2023-11-08T02:13:08.329Z,99244.19
2023-11-08T02:15:43.280Z,99244.38
2023-11-08T02:18:11.919Z,99238.06
2023-11-08T02:20:38.961Z,99239.75
2023-11-08T02:23:05.629Z,99245.03
2023-11-08T02:25:32.452Z,99242.28
2023-11-08T02:27:59.440Z,99233.47
2023-11-08T02:30:26.297Z,99227.25
2023-11-08T02:32:54.108Z,99235.06
2023-11-08T02:35:20.765Z,99227.16
2023-11-08T02:37:49.237Z,99237.69
2023-11-08T02:40:15.914Z,99232.44
2023-11-08T02:42:49.369Z,99230.72
2023-11-08T02:45:15.888Z,99231.47
2023-11-08T02:47:42.549Z,99235.06
2023-11-08T02:50:09.734Z,99236.75
2023-11-08T02:52:36.521Z,99239.38
2023-11-08T02:55:04.381Z,99240.31
2023-11-08T02:57:31.594Z,99230.72
2023-11-08T02:59:58.625Z,99241.16
2023-11-08T03:02:25.189Z,99235.06
2023-11-08T03:04:52.197Z,99238.41
2023-11-08T03:07:20.395Z,99243.69
2023-11-08T03:09:47.041Z,99236.63
2023-11-08T03:12:13.674Z,99244.44
2023-11-08T03:14:40.667Z,99238.22
2023-11-08T03:17:07.294Z,99241.69
2023-11-08T03:19:34.102Z,99252.22
2023-11-08T03:22:02.061Z,99242.53
2023-11-08T03:24:28.801Z,99240.75
2023-11-08T03:26:55.374Z,99247.81
2023-11-08T03:29:21.969Z,99234.53
2023-11-08T03:31:48.536Z,99241.59
2023-11-08T03:34:15.232Z,99243.16
2023-11-08T03:36:43.736Z,99243.06
2023-11-08T03:39:10.886Z,99240.44
2023-11-08T03:41:37.600Z,99240.44
2023-11-08T03:44:05.121Z,99251.81
2023-11-08T03:46:31.848Z,99244.78
2023-11-08T03:48:59.750Z,99253.59
2023-11-08T03:51:29.957Z,99253.81
2023-11-08T03:53:56.505Z,99245.94
2023-11-08T03:56:23.795Z,99246.03
2023-11-08T03:58:50.826Z,99252.22
2023-11-08T04:01:17.497Z,99247.06
2023-11-08T04:03:44.282Z,99249.81
2023-11-08T04:06:11.564Z,99246.31
2023-11-08T04:08:38.126Z,99253.50
2023-11-08T04:11:04.708Z,99243.78
2023-11-08T04:13:31.265Z,99260.44
2023-11-08T04:15:57.757Z,99254.31
2023-11-08T04:18:24.689Z,99259.56
2023-11-08T04:20:51.161Z,99256.84
2023-11-08T04:23:17.650Z,99251.56
2023-11-08T04:25:45.928Z,99265.50
2023-11-08T04:28:12.543Z,99265.50
2023-11-08T04:30:39.196Z,99271.50
2023-11-08T04:33:05.750Z,99266.22
2023-11-08T04:35:32.304Z,99274.13
2023-11-08T04:38:01.463Z,99271.50
2023-11-08T04:40:29.200Z,99274.13
2023-11-08T04:42:55.785Z,99271.59
2023-11-08T04:45:22.627Z,99262.75
2023-11-08T04:47:49.380Z,99269.81
2023-11-08T04:50:16.044Z,99265.38
2023-11-08T04:52:42.591Z,99257.59
2023-11-08T04:55:09.239Z,99265.50
2023-11-08T04:57:35.827Z,99263.06
2023-11-08T05:00:03.380Z,99262.31
2023-11-08T05:02:29.957Z,99267.69
2023-11-08T05:04:56.939Z,99273.88
2023-11-08T05:07:23.995Z,99275.78
2023-11-08T05:09:51.134Z,99275.03
2023-11-08T05:12:18.733Z,99278.50
2023-11-08T05:14:45.412Z,99278.50
2023-11-08T05:17:12.202Z,99277.66
2023-11-08T05:19:38.786Z,99292.63
2023-11-08T05:22:05.607Z,99284.81
2023-11-08T05:24:32.307Z,99275.16
2023-11-08T05:26:59.748Z,99269.03
2023-11-08T05:29:26.472Z,99260.09
2023-11-08T05:31:54.377Z,99271.56
2023-11-08T05:34:21.591Z,99282.00
2023-11-08T05:36:48.452Z,99279.38
2023-11-08T05:39:25.847Z,99282.81
2023-11-08T05:41:53.566Z,99287.13
2023-11-08T05:44:20.902Z,99292.41
2023-11-08T05:46:47.448Z,99288.75
2023-11-08T05:49:14.003Z,99296.66
2023-11-08T05:51:40.903Z,99302.75
2023-11-08T05:54:07.543Z,99309.69
2023-11-08T05:56:34.161Z,99306.22
2023-11-08T05:59:00.706Z,99307.06
2023-11-08T06:01:27.292Z,99314.03
2023-11-08T06:03:53.942Z,99301.69
2023-11-08T06:06:21.222Z,99306.03
2023-11-08T06:08:50.065Z,99305.91
2023-11-08T06:11:17.384Z,99305.91
2023-11-08T06:13:44.593Z,99306.69
2023-11-08T06:16:12.184Z,99303.19
2023-11-08T06:18:40.532Z,99307.63
2023-11-08T06:21:07.180Z,99311.94
2023-11-08T06:23:33.697Z,99314.56
2023-11-08T06:26:00.281Z,99313.63
2023-11-08T06:28:26.888Z,99314.56
2023-11-08T06:30:55.018Z,99319.84
2023-11-08T06:33:21.977Z,99326.78
2023-11-08T06:35:48.758Z,99323.28
2023-11-08T06:38:15.318Z,99332.91
2023-11-08T06:40:41.807Z,99329.31
2023-11-08T06:43:08.544Z,99334.50
2023-11-08T06:45:35.462Z,99333.53
2023-11-08T06:48:03.035Z,99345.75
2023-11-08T06:50:32.187Z,99339.66
2023-11-08T06:52:58.708Z,99340.41
2023-11-08T06:55:32.460Z,99349.97
2023-11-08T06:58:06.274Z,99352.59
2023-11-08T07:00:34.989Z,99352.50
2023-11-08T07:03:01.735Z,99354.31
2023-11-08T07:05:33.272Z,99360.41
2023-11-08T07:08:05.069Z,99356.00
2023-11-08T07:10:31.669Z,99365.59
2023-11-08T07:12:58.267Z,99363.81
2023-11-08T07:15:25.705Z,99359.38
2023-11-08T07:17:52.665Z,99359.28
2023-11-08T07:20:19.374Z,99371.47
2023-11-08T07:22:45.931Z,99371.47
2023-11-08T07:25:12.645Z,99367.94
2023-11-08T07:27:39.411Z,99374.88
2023-11-08T07:30:11.760Z,99382.78
2023-11-08T07:32:40.065Z,99384.47
2023-11-08T07:35:07.657Z,99388.78
2023-11-08T07:37:34.696Z,99389.72
2023-11-08T07:40:01.254Z,99387.94
2023-11-08T07:42:28.637Z,99396.81
2023-11-08T07:44:55.910Z,99390.69
2023-11-08T07:47:22.451Z,99401.94
2023-11-08T07:49:49.058Z,99397.72
2023-11-08T07:52:15.617Z,99392.47
2023-11-08T07:54:42.290Z,99395.94
2023-11-08T07:57:08.808Z,99397.63
2023-11-08T07:59:35.696Z,99391.41
2023-11-08T08:02:02.222Z,99397.44
2023-11-08T08:04:28.821Z,99396.41
2023-11-08T08:06:55.852Z,99393.66
2023-11-08T08:09:23.289Z,99401.25
2023-11-08T08:11:50.151Z,99401.16
2023-11-08T08:14:16.843Z,99401.91
2023-11-08T08:16:45.202Z,99393.06
2023-11-08T08:19:11.853Z,99399.19
2023-11-08T08:21:38.935Z,99395.59
2023-11-08T08:24:07.714Z,99396.44
2023-11-08T08:26:35.926Z,99400.88
2023-11-08T08:29:03.105Z,99392.00
2023-11-08T08:31:29.766Z,99388.53
2023-11-08T08:33:58.314Z,99397.19
2023-11-08T08:36:25.081Z,99410.34
2023-11-08T08:38:51.712Z,99409.41
2023-11-08T08:41:19.380Z,99410.34
2023-11-08T08:43:45.850Z,99405.09
2023-11-08T08:46:12.349Z,99401.50
2023-11-08T08:48:38.988Z,99405.94
2023-11-08T08:51:05.460Z,99401.50
2023-11-08T08:53:32.322Z,99404.91
2023-11-08T08:55:58.834Z,99398.56
2023-11-08T08:58:25.442Z,99399.31
2023-11-08T09:00:52.028Z,99400.06
2023-11-08T09:03:18.728Z,99392.78
2023-11-08T09:05:45.471Z,99399.75
2023-11-08T09:08:12.055Z,99406.59
2023-11-08T09:10:38.663Z,99402.09
2023-11-08T09:13:05.446Z,99404.63
2023-11-08T09:15:33.375Z,99409.91
2023-11-08T09:18:00.363Z,99420.34
2023-11-08T09:20:27.387Z,99420.34
2023-11-08T09:22:53.992Z,99420.13
2023-11-08T09:25:20.610Z,99423.59
2023-11-08T09:27:47.351Z,99424.44
2023-11-08T09:30:14.411Z,99420.78
2023-11-08T09:32:41.120Z,99418.88
2023-11-08T09:35:08.394Z,99429.22
2023-11-08T09:37:35.162Z,99429.94
2023-11-08T09:40:01.876Z,99426.16
2023-11-08T09:42:31.257Z,99430.47
2023-11-08T09:45:01.764Z,99418.06
2023-11-08T09:47:28.683Z,99416.06
2023-11-08T09:49:57.201Z,99418.50
2023-11-08T09:52:24.207Z,99413.03
2023-11-08T09:54:51.188Z,99409.22
2023-11-08T09:57:18.912Z,99411.53
2023-11-08T09:59:46.045Z,99408.59
2023-11-08T10:02:13.417Z,99405.63
2023-11-08T10:04:45.993Z,99404.47
2023-11-08T10:07:14.069Z,99408.50
2023-11-08T10:09:41.001Z,99409.25
2023-11-08T10:12:09.707Z,99401.19
2023-11-08T10:14:41.945Z,99398.56
2023-11-08T10:17:31.156Z,99404.53
2023-11-08T10:19:58.592Z,99399.88
2023-11-08T10:22:26.597Z,99402.31
2023-11-08T10:24:56.246Z,99397.75
2023-11-08T10:27:23.907Z,99392.25
2023-11-08T10:29:51.797Z,99389.41
2023-11-08T10:32:24.685Z,99383.91
2023-11-08T10:34:54.485Z,99382.63
2023-11-08T10:37:25.193Z,99383.91
2023-11-08T10:39:58.369Z,99375.44
2023-11-08T10:42:28.125Z,99373.84
2023-11-08T10:45:08.338Z,99371.69
2023-11-08T10:47:38.207Z,99374.63
2023-11-08T10:50:07.342Z,99361.72
2023-11-08T10:52:40.612Z,99348.28
2023-11-08T10:55:07.684Z,99356.59
2023-11-08T10:57:35.523Z,99347.47
2023-11-08T11:00:05.461Z,99350.75
2023-11-08T11:02:41.356Z,99352.22
2023-11-08T11:05:11.662Z,99347.31
2023-11-08T11:07:42.918Z,99356.34
2023-11-08T11:10:10.731Z,99344.88
2023-11-08T11:13:05.631Z,99342.97
2023-11-08T11:16:10.404Z,99345.94
2023-11-08T11:18:55.229Z,99335.38
2023-11-08T11:21:40.880Z,99348.50
2023-11-08T11:24:49.638Z,99345.72
2023-11-08T11:27:34.707Z,99337.03
2023-11-08T11:30:19.423Z,99337.72
2023-11-08T11:32:49.455Z,99335.25
2023-11-08T11:35:20.487Z,99337.63
2023-11-08T11:38:08.919Z,99339.97
2023-11-08T11:40:49.508Z,99329.53
2023-11-08T11:43:31.206Z,99331.00
2023-11-08T11:45:59.356Z,99322.84
2023-11-08T11:48:29.673Z,99322.72
2023-11-08T11:50:56.374Z,99323.66
2023-11-08T11:53:24.979Z,99318.03
2023-11-08T11:56:09.192Z,99309.31
2023-11-08T11:58:36.907Z,99310.97
2023-11-08T12:01:07.548Z,99312.31
2023-11-08T12:03:35.229Z,99311.47
2023-11-08T12:06:02.280Z,99328.78
2023-11-08T12:08:29.311Z,99316.50
2023-11-08T12:11:15.913Z,99320.75
2023-11-08T12:13:48.600Z,99321.41
2023-11-08T12:16:16.683Z,99303.50
2023-11-08T12:18:45.573Z,99302.44
2023-11-08T12:21:12.902Z,99306.47
2023-11-08T12:23:39.596Z,99312.84
2023-11-08T12:26:06.168Z,99294.56
2023-11-08T12:28:32.978Z,99303.63
2023-11-08T12:31:11.431Z,99301.44
2023-11-08T12:33:38.834Z,99307.59
2023-11-08T12:36:06.078Z,99308.06
2023-11-08T12:38:36.771Z,99296.44
2023-11-08T12:41:08.724Z,99301.38
2023-11-08T12:43:58.717Z,99301.75
2023-11-08T12:46:37.564Z,99291.66
2023-11-08T12:49:21.044Z,99280.72
2023-11-08T12:51:48.015Z,99286.03
2023-11-08T12:54:16.266Z,99286.84
2023-11-08T12:56:43.355Z,99303.47
2023-11-08T12:59:11.444Z,99298.75
2023-11-08T13:01:39.257Z,99294.19
2023-11-08T13:04:06.928Z,99282.63
2023-11-08T13:06:35.209Z,99284.31
2023-11-08T13:09:02.271Z,99282.22
2023-11-08T13:13:55.509Z,99275.13
2023-11-08T13:16:22.043Z,99283.63
2023-11-08T13:18:49.054Z,99268.59
2023-11-08T13:21:15.657Z,99265.22
2023-11-08T13:24:01.777Z,99287.38
2023-11-08T13:26:29.737Z,99270.91
2023-11-08T13:28:56.467Z,99265.72
2023-11-08T13:31:23.031Z,99262.22
2023-11-08T13:33:50.305Z,99265.72
2023-11-08T13:36:17.206Z,99268.38
2023-11-08T13:38:43.768Z,99256.81
2023-11-08T13:41:10.574Z,99250.41
2023-11-08T13:43:37.981Z,99240.28
2023-11-08T13:46:05.200Z,99246.41
2023-11-08T13:48:32.514Z,99247.06
2023-11-08T13:51:01.396Z,99244.22
2023-11-08T13:53:28.190Z,99247.91
2023-11-08T13:55:54.782Z,99236.91
2023-11-08T13:58:29.235Z,99240.41
2023-11-08T14:01:06.928Z,99238.00
2023-11-08T14:03:34.164Z,99233.09
2023-11-08T14:06:00.997Z,99224.25
2023-11-08T14:08:27.586Z,99230.31
2023-11-08T14:10:54.140Z,99231.34
2023-11-08T14:13:20.709Z,99228.75
2023-11-08T14:15:47.869Z,99221.06
2023-11-08T14:18:16.089Z,99222.09
2023-11-08T14:20:42.690Z,99222.97
2023-11-08T14:23:09.828Z,99219.38
2023-11-08T14:25:38.554Z,99214.84
2023-11-08T14:28:05.453Z,99215.47
2023-11-08T14:30:32.523Z,99220.28
2023-11-08T14:32:59.126Z,99212.84
2023-11-08T14:35:26.022Z,99208.88
2023-11-08T14:37:53.208Z,99211.06
2023-11-08T14:40:20.699Z,99205.28
2023-11-08T14:42:47.537Z,99201.22
2023-11-08T14:45:14.087Z,99188.34
2023-11-08T14:47:40.742Z,99195.69
2023-11-08T14:50:07.618Z,99192.31
2023-11-08T14:52:34.221Z,99188.22
2023-11-08T14:55:01.113Z,99186.66
2023-11-08T14:57:27.734Z,99176.34
2023-11-08T14:59:54.229Z,99173.94
2023-11-08T15:02:20.841Z,99175.03
2023-11-08T15:04:47.562Z,99176.06
2023-11-08T15:09:40.233Z,99164.16
2023-11-08T15:10:02.370Z,99163.44
2023-11-08T15:12:29.318Z,99155.78
2023-11-08T15:14:56.244Z,99160.44
2023-11-08T15:17:22.837Z,99156.34
2023-11-08T15:19:51.179Z,99151.44
2023-11-08T15:22:18.041Z,99145.53
2023-11-08T15:24:50.563Z,99145.91
2023-11-08T15:27:18.349Z,99147.00
2023-11-08T15:29:44.977Z,99153.47
2023-11-08T15:32:11.569Z,99144.22
2023-11-08T15:34:38.708Z,99143.63
2023-11-08T15:37:05.611Z,99134.38
2023-11-08T15:39:32.065Z,99130.28
2023-11-08T15:41:58.576Z,99132.31
2023-11-08T15:44:28.019Z,99123.75
2023-11-08T15:46:55.749Z,99125.94
2023-11-08T15:49:23.215Z,99124.38
2023-11-08T15:51:50.446Z,99121.13
2023-11-08T15:54:17.105Z,99113.44
2023-11-08T15:56:44.220Z,99103.94
2023-11-08T15:59:11.007Z,99091.72
2023-11-08T16:01:37.956Z,99092.78
2023-11-08T16:04:06.074Z,99093.84
2023-11-08T16:06:32.700Z,99082.44
2023-11-08T16:09:00.163Z,99078.13
2023-11-08T16:11:26.710Z,99073.78
2023-11-08T16:13:53.876Z,99071.25
2023-11-08T16:16:20.367Z,99071.25
2023-11-08T16:18:50.489Z,99070.44
2023-11-08T16:21:18.492Z,99064.44
2023-11-08T16:23:47.859Z,99050.63
2023-11-08T16:26:14.280Z,99053.16
2023-11-08T16:28:41.405Z,99053.16
2023-11-08T16:32:30.466Z,99043.56
2023-11-08T16:33:57.274Z,99048.84
2023-11-08T16:36:26.670Z,99055.06
2023-11-08T16:38:53.580Z,99040.28
2023-11-08T16:41:21.379Z,99035.28
2023-11-08T16:43:48.142Z,99029.25
2023-11-08T16:46:16.533Z,99025.06
2023-11-08T16:48:44.403Z,99029.63
2023-11-08T16:51:12.329Z,99030.66
2023-11-08T16:53:38.930Z,99023.72
2023-11-08T16:56:05.376Z,99026.47
2023-11-08T16:58:31.935Z,99035.47
2023-11-08T17:00:58.791Z,99018.06
2023-11-08T17:03:25.663Z,99014.72
2023-11-08T17:05:53.147Z,99019.25
2023-11-08T17:08:20.032Z,99012.31
2023-11-08T17:10:48.080Z,99018.66
2023-11-08T17:13:14.577Z,99024.16
2023-11-08T17:15:53.276Z,99038.91
2023-11-08T17:18:21.106Z,99039.63
2023-11-08T17:20:47.876Z,99028.66
2023-11-08T17:23:14.530Z,99026.38
2023-11-08T17:25:40.961Z,99022.38
2023-11-08T17:28:07.456Z,99029.81
2023-11-08T17:30:34.061Z,99019.69
2023-11-08T17:33:00.893Z,99021.94
2023-11-08T17:35:31.253Z,99010.31
2023-11-08T17:37:58.248Z,99016.97
2023-11-08T17:40:24.737Z,99003.63
2023-11-08T17:42:51.289Z,99005.16
2023-11-08T17:45:17.735Z,98996.22
2023-11-08T17:47:44.880Z,98997.47
2023-11-08T17:50:11.649Z,98989.28
2023-11-08T17:52:38.060Z,98989.75
2023-11-08T17:55:05.946Z,98989.25
2023-11-08T17:57:32.432Z,98986.00
2023-11-08T17:59:58.927Z,98973.03
2023-11-08T18:02:25.361Z,98973.13
2023-11-08T18:04:51.840Z,98965.34
2023-11-08T18:07:18.770Z,98976.09
2023-11-08T18:09:45.360Z,98960.28
2023-11-08T18:12:16.515Z,98954.31
2023-11-08T18:14:43.491Z,98959.69
2023-11-08T18:17:12.759Z,98953.69
2023-11-08T18:19:39.351Z,98947.69
2023-11-08T18:22:05.916Z,98943.47
2023-11-08T18:24:35.703Z,98948.75
2023-11-08T18:27:02.525Z,98942.63
2023-11-08T18:29:30.621Z,98961.19
2023-11-08T18:31:57.157Z,98934.72
2023-11-08T18:34:23.752Z,98933.06
2023-11-08T18:36:51.271Z,98936.53
2023-11-08T18:39:17.739Z,98940.13
2023-11-08T18:41:44.279Z,98942.88
2023-11-08T18:44:10.723Z,98939.38
2023-11-08T18:46:37.375Z,98936.97
2023-11-08T18:49:04.070Z,98931.69
2023-11-08T18:51:30.968Z,98932.75
2023-11-08T18:53:57.496Z,98931.06
2023-11-08T18:56:24.039Z,98942.56
2023-11-08T18:58:50.617Z,98925.09
2023-11-08T19:01:19.588Z,98918.88
2023-11-08T19:03:46.832Z,98913.63
2023-11-08T19:06:13.335Z,98916.13
2023-11-08T19:08:39.844Z,98912.75
2023-11-08T19:11:10.070Z,98913.72
2023-11-08T19:13:37.682Z,98922.47
2023-11-08T19:16:05.570Z,98912.88
2023-11-08T19:18:32.370Z,98917.41
2023-11-08T19:20:59.960Z,98895.59
2023-11-08T19:23:28.430Z,98890.34
2023-11-08T19:25:57.940Z,98887.00
2023-11-08T19:28:24.866Z,98888.88
2023-11-08T19:30:51.847Z,98882.78
2023-11-08T19:33:18.456Z,98884.56
2023-11-08T19:35:45.604Z,98883.72
2023-11-08T19:38:16.723Z,98885.63
2023-11-08T19:40:43.637Z,98888.16
2023-11-08T19:43:11.617Z,98889.84
2023-11-08T19:45:38.308Z,98886.34
2023-11-08T19:48:05.251Z,98881.09
2023-11-08T19:50:32.596Z,98878.47
2023-11-08T19:52:59.610Z,98882.91
2023-11-08T19:55:29.674Z,98875.72
2023-11-08T19:57:57.188Z,98870.47
2023-11-08T20:00:23.770Z,98878.34
2023-11-08T20:02:50.344Z,98871.31
2023-11-08T20:05:17.121Z,98868.56
2023-11-08T20:07:43.789Z,98864.03
2023-11-08T20:10:10.947Z,98863.91
2023-11-08T20:12:38.478Z,98858.44
2023-11-08T20:15:06.559Z,98858.34
2023-11-08T20:17:34.933Z,98852.97
2023-11-08T20:20:02.560Z,98855.34
2023-11-08T20:22:29.172Z,98846.53
2023-11-08T20:24:55.748Z,98859.56
2023-11-08T20:27:22.727Z,98855.88
2023-11-08T20:29:49.430Z,98839.84
2023-11-08T20:32:16.800Z,98853.88
2023-11-08T20:34:43.898Z,98846.69
2023-11-08T20:37:11.700Z,98833.31
2023-11-08T20:39:38.189Z,98826.16
2023-11-08T20:42:07.545Z,98833.09
2023-11-08T20:44:34.816Z,98831.16
2023-11-08T20:47:01.519Z,98824.84
2023-11-08T20:49:28.380Z,98826.53
2023-11-08T20:51:55.797Z,98815.03
2023-11-08T20:54:25.916Z,98826.28
2023-11-08T20:56:53.387Z,98806.06
2023-11-08T20:59:20.458Z,98813.88
2023-11-08T21:01:47.358Z,98804.16
2023-11-08T21:04:14.178Z,98808.34
2023-11-08T21:06:40.982Z,98802.97
2023-11-08T21:09:10.813Z,98791.38
2023-11-08T21:11:38.314Z,98797.38
2023-11-08T21:14:06.734Z,98797.28
2023-11-08T21:16:34.127Z,98793.66
2023-11-08T21:19:02.789Z,98792.59
2023-11-08T21:21:31.041Z,98787.22
2023-11-08T21:23:58.037Z,98795.00
2023-11-08T21:26:26.414Z,98786.25
2023-11-08T21:28:53.902Z,98771.19
2023-11-08T21:31:20.729Z,98768.56
2023-11-08T21:33:47.387Z,98772.13
2023-11-08T21:36:14.017Z,98759.91
2023-11-08T21:38:44.176Z,98767.81
2023-11-08T21:41:14.096Z,98762.56
2023-11-08T21:43:42.065Z,98758.13
2023-11-08T21:46:09.971Z,98756.31
2023-11-08T21:48:37.247Z,98759.69
2023-11-08T21:51:03.896Z,98753.56
2023-11-08T21:53:32.948Z,98751.06
2023-11-08T21:56:00.822Z,98747.50
2023-11-08T21:58:27.732Z,98743.03
2023-11-08T22:00:54.823Z,98737.78
2023-11-08T22:03:23.158Z,98741.25
2023-11-08T22:05:50.569Z,98729.88
2023-11-08T22:08:20.239Z,98726.41
2023-11-08T22:10:47.027Z,98721.84
2023-11-08T22:13:15.735Z,98711.31
2023-11-08T22:15:42.543Z,98721.75
2023-11-08T22:18:09.597Z,98713.84
2023-11-08T22:20:36.482Z,98711.22
2023-11-08T22:23:04.529Z,98714.69
2023-11-08T22:25:31.410Z,98703.19
2023-11-08T22:28:00.047Z,98710.97
2023-11-08T22:30:26.764Z,98699.47
2023-11-08T22:32:53.333Z,98693.25
2023-11-08T22:35:19.925Z,98696.72
2023-11-08T22:37:46.466Z,98705.34
2023-11-08T22:40:13.298Z,98705.34
2023-11-08T22:42:39.800Z,98695.66
2023-11-08T22:45:07.462Z,98690.38
2023-11-08T22:47:34.013Z,98688.47
2023-11-08T22:50:00.815Z,98693.88
2023-11-08T22:52:27.338Z,98687.63
2023-11-08T22:54:54.335Z,98679.84
2023-11-08T22:57:22.710Z,98679.84
2023-11-08T22:59:49.242Z,98672.78
2023-11-08T23:02:16.159Z,98671.81
2023-11-08T23:04:45.356Z,98676.25
2023-11-08T23:07:12.238Z,98672.53
2023-11-08T23:09:38.757Z,98670.88
2023-11-08T23:12:05.630Z,98666.44
2023-11-08T23:14:32.158Z,98656.72
2023-11-08T23:16:59.198Z,98662.84
2023-11-08T23:19:26.149Z,98661.03
2023-11-08T23:21:52.745Z,98655.75
2023-11-08T23:24:21.406Z,98653.00
2023-11-08T23:26:48.424Z,98648.59
2023-11-08T23:29:15.576Z,98645.94
2023-11-08T23:31:42.036Z,98645.00
2023-11-08T23:34:08.653Z,98634.44
2023-11-08T23:36:35.196Z,98635.31
2023-11-08T23:39:04.054Z,98635.31
2023-11-08T23:41:30.601Z,98639.72
2023-11-08T23:43:57.256Z,98630.16
2023-11-08T23:46:23.994Z,98636.38
2023-11-08T23:48:50.770Z,98629.69
2023-11-08T23:51:17.822Z,98628.81
2023-11-08T23:53:44.329Z,98626.31
2023-11-08T23:56:14.789Z,98625.50
2023-11-08T23:58:41.372Z,98618.41
